KPWM

Portland International Jetport Airport

Portland, Maine, USA
METAR KPWM 181251Z 32016G27KT 10SM BKN090 M04/M13 A2969 RMK AO2 PK WND 33028/1203 SLP055 T10441128
Observed Flight Rules
Dec-18 @ 12:51 UTC (17 minutes ago) Visual Flight Rules
Wind Visibility Clouds
320° at 16 knots
 Gusting to 27 knots
10 miles
  • Broken at 9,000' AGL
Temperatures Readings
Current -4°C / 25°F
Dewpoint -13°C / 9°F
Humidity 50%
Altimeter 29.69" Hg
Pressure 1005.5 hPa
Elevation 15
METAR KPWM 181251Z 32016G27KT 10SM BKN090 M04/M13 A2969 RMK AO2 PK WND 33028/1203 SLP055 T10441128
Observed Flight Rules
Dec-18 @ 12:51 UTC
(17 minutes ago)
VFR
Wind Visibility
320° at 16 knots
 Gusting to 27 knots
10 miles
Clouds
  • Broken at 9,000' AGL
Temperature Dewpoint
-4°C / 25°F -13°C / 9°F
Humidity Altimeter Pressure
50% 29.69" Hg 1005.5 hPa